createdAt,value
2022-11-10T00:01:20.040Z,1.40
2022-11-10T00:03:40.521Z,1.60
2022-11-10T00:06:03.475Z,1.60
2022-11-10T00:08:23.764Z,1.27
2022-11-10T00:11:02.144Z,1.42
2022-11-10T00:13:25.011Z,1.25
2022-11-10T00:16:03.921Z,1.35
2022-11-10T00:18:24.215Z,1.30
2022-11-10T00:20:45.141Z,1.30
2022-11-10T00:23:05.358Z,1.13
2022-11-10T00:25:28.273Z,1.23
2022-11-10T00:28:09.333Z,1.27
2022-11-10T00:30:29.642Z,1.23
2022-11-10T00:32:49.949Z,1.40
2022-11-10T00:35:10.240Z,1.40
2022-11-10T00:37:30.244Z,1.25
2022-11-10T00:39:52.650Z,1.50
2022-11-10T00:42:13.036Z,1.50
2022-11-10T00:44:33.627Z,1.40
2022-11-10T00:46:53.612Z,1.38
2022-11-10T00:49:14.029Z,1.27
2022-11-10T00:51:34.499Z,1.25
2022-11-10T00:53:55.546Z,1.50
2022-11-10T00:56:15.837Z,1.60
2022-11-10T00:58:36.987Z,1.65
2022-11-10T01:01:04.174Z,1.58
2022-11-10T01:03:24.614Z,1.42
2022-11-10T01:05:45.057Z,1.25
2022-11-10T01:08:05.788Z,1.40
2022-11-10T01:10:28.463Z,1.60
2022-11-10T01:12:49.036Z,1.67
2022-11-10T01:15:10.366Z,1.60
2022-11-10T01:17:30.705Z,1.80
2022-11-10T01:19:51.058Z,1.80
2022-11-10T01:22:11.317Z,1.80
2022-11-10T01:24:32.578Z,1.85
2022-11-10T01:26:52.685Z,1.67
2022-11-10T01:29:14.732Z,1.58
2022-11-10T01:31:46.976Z,1.60
2022-11-10T01:34:07.514Z,1.42
2022-11-10T01:36:27.866Z,1.77
2022-11-10T01:38:48.148Z,1.67
2022-11-10T01:41:10.090Z,2.20
2022-11-10T01:43:31.173Z,1.83
2022-11-10T01:46:06.688Z,1.85
2022-11-10T01:48:59.146Z,1.98
2022-11-10T01:51:31.602Z,1.80
2022-11-10T01:53:58.789Z,1.50
2022-11-10T01:56:20.956Z,1.40
2022-11-10T01:58:50.978Z,1.67
2022-11-10T02:01:11.467Z,1.55
2022-11-10T02:03:54.056Z,1.73
2022-11-10T02:06:16.361Z,1.38
2022-11-10T02:08:36.797Z,1.20
2022-11-10T02:10:57.137Z,1.63
2022-11-10T02:13:17.328Z,1.30
2022-11-10T02:15:38.178Z,1.20
2022-11-10T02:17:58.440Z,1.38
2022-11-10T02:20:26.876Z,1.58
2022-11-10T02:22:47.318Z,1.67
2022-11-10T02:25:07.984Z,1.60
2022-11-10T02:27:40.593Z,1.67
2022-11-10T02:30:01.702Z,1.58
2022-11-10T02:32:22.588Z,1.60
2022-11-10T02:34:43.494Z,1.52
2022-11-10T02:37:04.069Z,1.70
2022-11-10T02:39:24.128Z,1.45
2022-11-10T02:41:44.254Z,1.30
2022-11-10T02:44:13.483Z,1.70
2022-11-10T02:46:34.064Z,1.40
2022-11-10T02:48:54.743Z,1.52
2022-11-10T02:51:14.959Z,1.55
2022-11-10T02:53:38.269Z,1.67
2022-11-10T02:55:59.130Z,1.45
2022-11-10T02:58:19.421Z,1.45
2022-11-10T03:00:39.462Z,1.50
2022-11-10T03:03:07.107Z,1.42
2022-11-10T03:05:31.020Z,1.58
2022-11-10T03:07:55.906Z,1.58
2022-11-10T03:10:17.871Z,1.38
2022-11-10T03:12:38.292Z,1.45
2022-11-10T03:14:59.833Z,1.60
2022-11-10T03:17:21.266Z,1.25
2022-11-10T03:19:41.517Z,1.38
2022-11-10T03:22:02.130Z,1.20
2022-11-10T03:24:22.068Z,1.15
2022-11-10T03:26:49.568Z,0.80
2022-11-10T03:29:09.755Z,0.98
2022-11-10T03:31:29.856Z,1.00
2022-11-10T03:33:50.049Z,0.88
2022-11-10T03:36:17.656Z,1.10
2022-11-10T03:38:37.979Z,1.00
2022-11-10T03:43:39.522Z,1.10
2022-11-10T03:45:59.675Z,0.80
2022-11-10T03:48:23.128Z,0.90
2022-11-10T03:50:46.073Z,1.08
2022-11-10T03:53:06.412Z,1.10
2022-11-10T03:55:27.157Z,1.05
2022-11-10T03:57:54.795Z,1.10
2022-11-10T04:00:15.313Z,1.10
2022-11-10T04:02:36.297Z,1.15
2022-11-10T04:05:15.249Z,1.17
2022-11-10T04:07:56.644Z,1.23
2022-11-10T04:10:16.986Z,1.20
2022-11-10T04:12:55.704Z,1.20
2022-11-10T04:15:34.629Z,1.10
2022-11-10T04:17:54.949Z,1.08
2022-11-10T04:20:15.514Z,0.95
2022-11-10T04:22:54.407Z,1.17
2022-11-10T04:25:14.748Z,1.30
2022-11-10T04:27:34.980Z,0.85
2022-11-10T04:29:55.202Z,0.98
2022-11-10T04:32:15.372Z,1.30
2022-11-10T04:34:38.588Z,1.23
2022-11-10T04:36:59.074Z,1.00
2022-11-10T04:39:19.080Z,1.05
2022-11-10T04:41:39.743Z,1.00
2022-11-10T04:44:00.721Z,1.00
2022-11-10T04:46:26.639Z,1.35
2022-11-10T04:48:49.918Z,1.20
2022-11-10T04:51:10.193Z,1.50
2022-11-10T04:53:30.310Z,1.50
2022-11-10T04:55:50.662Z,1.30
2022-11-10T04:58:11.728Z,1.40
2022-11-10T05:00:32.502Z,1.40
2022-11-10T05:02:52.617Z,1.15
2022-11-10T05:05:15.884Z,1.33
2022-11-10T05:07:35.967Z,1.10
2022-11-10T05:09:56.328Z,0.95
2022-11-10T05:12:29.985Z,1.00
2022-11-10T05:14:52.276Z,1.27
2022-11-10T05:17:12.341Z,1.20
2022-11-10T05:19:32.579Z,0.93
2022-11-10T05:21:54.638Z,1.30
2022-11-10T05:24:15.030Z,1.25
2022-11-10T05:26:35.105Z,1.40
2022-11-10T05:29:02.287Z,1.10
2022-11-10T05:31:22.686Z,1.42
2022-11-10T05:33:45.197Z,1.42
2022-11-10T05:36:09.761Z,1.50
2022-11-10T05:38:29.742Z,1.30
2022-11-10T05:40:50.240Z,1.50
2022-11-10T05:43:10.809Z,1.60
2022-11-10T05:45:31.018Z,1.50
2022-11-10T05:47:51.612Z,1.70
2022-11-10T05:50:11.953Z,1.30
2022-11-10T05:52:32.784Z,1.55
2022-11-10T05:54:55.498Z,1.60
2022-11-10T05:57:21.941Z,1.67
2022-11-10T05:59:42.416Z,1.52
2022-11-10T06:02:02.758Z,1.52
2022-11-10T06:04:23.131Z,1.50
2022-11-10T06:06:46.303Z,1.40
2022-11-10T06:09:09.157Z,1.40
2022-11-10T06:11:29.664Z,1.23
2022-11-10T06:13:50.727Z,1.20
2022-11-10T06:16:11.336Z,1.20
2022-11-10T06:18:31.860Z,1.50
2022-11-10T06:20:57.074Z,1.70
2022-11-10T06:23:17.387Z,1.98
2022-11-10T06:25:42.412Z,2.47
2022-11-10T06:28:06.770Z,2.83
2022-11-10T06:30:28.213Z,3.50
2022-11-10T06:32:49.833Z,2.90
2022-11-10T06:35:11.317Z,2.95
2022-11-10T06:37:41.135Z,2.70
2022-11-10T06:40:01.795Z,3.08
2022-11-10T06:42:22.208Z,3.40
2022-11-10T06:44:42.691Z,2.88
2022-11-10T06:47:02.731Z,2.65
2022-11-10T06:49:22.880Z,2.65
2022-11-10T06:51:42.860Z,2.40
2022-11-10T06:54:03.158Z,2.38
2022-11-10T06:56:26.173Z,2.53
2022-11-10T06:58:46.580Z,2.47
2022-11-10T07:01:07.091Z,2.35
2022-11-10T07:03:28.972Z,2.45
2022-11-10T07:05:49.448Z,2.40
2022-11-10T07:08:15.869Z,2.28
2022-11-10T07:10:37.267Z,2.50
2022-11-10T07:12:59.345Z,2.35
2022-11-10T07:15:21.731Z,2.35
2022-11-10T07:17:43.747Z,2.40
2022-11-10T07:20:04.519Z,2.33
2022-11-10T07:22:25.117Z,2.70
2022-11-10T07:24:46.684Z,2.80
2022-11-10T07:27:08.280Z,2.70
2022-11-10T07:29:28.321Z,2.75
2022-11-10T07:31:50.356Z,3.05
2022-11-10T07:34:11.096Z,3.03
2022-11-10T07:36:31.416Z,2.58
2022-11-10T07:38:52.864Z,2.88
2022-11-10T07:41:13.393Z,2.95
2022-11-10T07:43:35.744Z,3.03
2022-11-10T07:45:56.152Z,3.13
2022-11-10T07:48:17.043Z,3.38
2022-11-10T07:50:37.717Z,3.22
2022-11-10T07:53:10.156Z,3.60
2022-11-10T07:55:30.501Z,3.30
2022-11-10T07:58:01.164Z,4.18
2022-11-10T08:00:21.475Z,3.60
2022-11-10T08:02:41.802Z,3.35
2022-11-10T08:05:02.492Z,3.63
2022-11-10T08:07:25.922Z,3.25
2022-11-10T08:09:46.346Z,3.28
2022-11-10T08:12:07.858Z,3.70
2022-11-10T08:14:28.087Z,3.33
2022-11-10T08:16:48.612Z,3.22
2022-11-10T08:19:09.469Z,2.83
2022-11-10T08:21:30.481Z,3.10
2022-11-10T08:23:50.635Z,3.08
2022-11-10T08:26:16.658Z,2.88
2022-11-10T08:28:38.848Z,2.80
2022-11-10T08:31:04.273Z,3.00
2022-11-10T08:33:28.975Z,2.80
2022-11-10T08:35:51.991Z,2.85
2022-11-10T08:38:18.648Z,2.67
2022-11-10T08:40:40.288Z,2.78
2022-11-10T08:43:02.994Z,2.80
2022-11-10T08:45:23.331Z,2.80
2022-11-10T08:47:46.183Z,2.58
2022-11-10T08:50:08.333Z,3.00
2022-11-10T08:52:28.561Z,2.95
2022-11-10T08:54:49.229Z,2.70
2022-11-10T08:57:10.752Z,2.63
2022-11-10T08:59:31.395Z,2.90
2022-11-10T09:01:51.968Z,2.42
2022-11-10T09:04:20.542Z,3.00
2022-11-10T09:06:41.902Z,2.70
2022-11-10T09:09:02.180Z,3.28
2022-11-10T09:11:22.704Z,3.50
2022-11-10T09:13:44.055Z,2.80
2022-11-10T09:16:05.228Z,2.85
2022-11-10T09:18:26.653Z,2.53
2022-11-10T09:20:51.669Z,2.50
2022-11-10T09:23:17.647Z,2.72
2022-11-10T09:25:38.990Z,2.65
2022-11-10T09:27:59.229Z,2.50
2022-11-10T09:30:19.801Z,2.80
2022-11-10T09:32:40.191Z,2.50
2022-11-10T09:35:01.255Z,2.30
2022-11-10T09:37:23.640Z,2.33
2022-11-10T09:39:44.144Z,2.17
2022-11-10T09:42:06.887Z,2.58
2022-11-10T09:44:38.745Z,2.20
2022-11-10T09:47:56.349Z,2.67
2022-11-10T09:50:44.647Z,2.53
2022-11-10T09:53:10.827Z,2.58
2022-11-10T09:55:43.296Z,3.03
2022-11-10T09:58:04.472Z,2.65
2022-11-10T10:00:25.538Z,2.60
2022-11-10T10:02:58.172Z,2.72
2022-11-10T10:05:47.466Z,2.42
2022-11-10T10:08:14.847Z,2.80
2022-11-10T10:10:47.413Z,2.60
2022-11-10T10:13:45.653Z,2.47
2022-11-10T10:16:16.566Z,2.00
2022-11-10T10:19:13.945Z,2.70
2022-11-10T10:21:48.287Z,2.17
2022-11-10T10:24:22.065Z,1.88
2022-11-10T10:26:52.419Z,1.98
2022-11-10T10:29:21.268Z,1.83
2022-11-10T10:31:43.849Z,1.90
2022-11-10T10:34:05.080Z,1.90
2022-11-10T10:36:30.661Z,1.70
2022-11-10T10:39:03.527Z,1.75
2022-11-10T10:41:30.779Z,2.00
2022-11-10T10:43:54.878Z,1.80
2022-11-10T10:46:16.262Z,1.80
2022-11-10T10:48:36.464Z,1.88
2022-11-10T10:50:56.751Z,1.60
2022-11-10T10:53:24.406Z,1.58
2022-11-10T10:55:53.953Z,1.98
2022-11-10T10:58:52.940Z,1.77
2022-11-10T11:01:16.228Z,1.60
2022-11-10T11:03:45.820Z,1.40
2022-11-10T11:06:15.125Z,1.60
2022-11-10T11:08:42.884Z,1.75
2022-11-10T11:11:10.969Z,1.50
2022-11-10T11:13:34.440Z,1.58
2022-11-10T11:16:07.289Z,1.40
2022-11-10T11:18:30.361Z,1.73
2022-11-10T11:21:18.404Z,1.67
2022-11-10T11:24:20.585Z,1.48
2022-11-10T11:26:46.165Z,1.50
2022-11-10T11:29:51.066Z,1.65
2022-11-10T11:32:25.347Z,1.40
2022-11-10T11:35:13.923Z,1.75
2022-11-10T11:37:52.061Z,1.60
2022-11-10T11:40:40.555Z,1.33
2022-11-10T11:43:28.062Z,1.38
2022-11-10T11:45:58.507Z,1.60
2022-11-10T11:48:47.556Z,1.65
2022-11-10T11:51:20.091Z,1.60
2022-11-10T11:54:18.485Z,1.50
2022-11-10T11:56:44.862Z,1.45
2022-11-10T11:59:17.364Z,1.90
2022-11-10T12:02:03.919Z,1.50
2022-11-10T12:04:51.637Z,1.23
2022-11-10T12:07:20.896Z,1.45
2022-11-10T12:09:47.109Z,1.80
2022-11-10T12:12:22.760Z,1.63
2022-11-10T12:14:58.395Z,1.50
2022-11-10T12:17:29.617Z,1.50
2022-11-10T12:20:38.416Z,1.30
2022-11-10T12:23:43.167Z,1.50
2022-11-10T12:26:26.478Z,1.70
2022-11-10T12:28:55.772Z,1.40
2022-11-10T12:31:21.568Z,1.38
2022-11-10T12:33:53.519Z,1.52
2022-11-10T12:36:17.825Z,1.42
2022-11-10T12:39:00.516Z,1.50
2022-11-10T12:41:32.930Z,1.40
2022-11-10T12:44:21.428Z,1.40
2022-11-10T12:46:49.475Z,1.58
2022-11-10T12:49:36.578Z,1.48
2022-11-10T12:52:18.455Z,1.20
2022-11-10T12:54:42.555Z,1.60
2022-11-10T12:57:13.614Z,1.23
2022-11-10T12:59:51.837Z,1.15
2022-11-10T13:02:18.849Z,1.50
2022-11-10T13:04:49.779Z,1.27
2022-11-10T13:07:17.072Z,1.55
2022-11-10T13:09:40.354Z,1.17
2022-11-10T13:12:16.942Z,1.30
2022-11-10T13:14:38.479Z,1.23
2022-11-10T13:17:01.741Z,1.30
2022-11-10T13:19:25.203Z,1.67
2022-11-10T13:21:51.506Z,1.33
2022-11-10T13:24:19.883Z,1.50
2022-11-10T13:26:39.848Z,1.35
2022-11-10T13:29:02.700Z,1.25
2022-11-10T13:31:55.035Z,1.50
2022-11-10T13:34:18.695Z,1.27
2022-11-10T13:36:47.029Z,1.42
2022-11-10T13:39:45.625Z,1.20
2022-11-10T13:42:09.265Z,1.50
2022-11-10T13:44:33.327Z,1.58
2022-11-10T13:47:10.884Z,1.55
2022-11-10T13:49:40.425Z,1.40
2022-11-10T13:52:17.310Z,1.00
2022-11-10T13:55:09.481Z,1.50
2022-11-10T13:57:38.923Z,1.58
2022-11-10T14:00:11.380Z,1.10
2022-11-10T14:02:34.750Z,1.13
2022-11-10T14:04:56.745Z,1.13
2022-11-10T14:07:19.739Z,1.27
2022-11-10T14:09:48.823Z,1.20
2022-11-10T14:12:21.639Z,0.85
2022-11-10T14:15:06.935Z,1.20
2022-11-10T14:17:45.754Z,1.05
2022-11-10T14:20:32.811Z,1.17
2022-11-10T14:22:53.858Z,1.15
2022-11-10T14:25:39.712Z,1.10
2022-11-10T14:27:59.891Z,1.20
2022-11-10T14:30:26.058Z,1.05
2022-11-10T14:35:51.786Z,1.10
2022-11-10T14:38:27.384Z,1.08
2022-11-10T14:40:48.852Z,1.15
2022-11-10T14:43:30.220Z,1.10
2022-11-10T14:45:52.905Z,1.05
2022-11-10T14:48:20.295Z,1.05
2022-11-10T14:50:58.617Z,1.23
2022-11-10T14:53:29.292Z,1.25
2022-11-10T14:55:54.639Z,1.20
2022-11-10T14:58:34.237Z,1.08
2022-11-10T15:01:10.647Z,1.05
2022-11-10T15:03:39.622Z,1.30
2022-11-10T15:06:24.564Z,1.10
2022-11-10T15:08:52.835Z,1.30
2022-11-10T15:11:39.851Z,1.08
2022-11-10T15:14:00.237Z,1.55
2022-11-10T15:16:31.781Z,1.20
2022-11-10T15:18:55.492Z,1.30
2022-11-10T15:21:21.854Z,1.42
2022-11-10T15:23:43.884Z,1.30
2022-11-10T15:26:16.769Z,1.30
2022-11-10T15:28:49.608Z,1.17
2022-11-10T15:31:34.612Z,1.80
2022-11-10T15:34:01.112Z,2.00
2022-11-10T15:36:32.269Z,2.08
2022-11-10T15:39:23.261Z,1.98
2022-11-10T15:41:47.650Z,1.63
2022-11-10T15:44:23.572Z,1.67
2022-11-10T15:46:44.774Z,1.80
2022-11-10T15:49:11.309Z,1.35
2022-11-10T15:51:34.784Z,1.67
2022-11-10T15:53:55.022Z,1.90
2022-11-10T15:56:17.866Z,1.80
2022-11-10T15:58:37.923Z,1.75
2022-11-10T16:00:58.508Z,2.05
2022-11-10T16:03:21.048Z,1.98
2022-11-10T16:05:41.525Z,1.92
2022-11-10T16:08:10.507Z,1.95
2022-11-10T16:10:30.931Z,2.25
2022-11-10T16:12:51.097Z,1.80
2022-11-10T16:15:19.830Z,1.80
2022-11-10T16:17:39.897Z,2.17
2022-11-10T16:20:00.427Z,2.35
2022-11-10T16:22:21.057Z,2.55
2022-11-10T16:24:42.123Z,2.22
2022-11-10T16:27:05.774Z,2.38
2022-11-10T16:29:26.827Z,2.28
2022-11-10T16:31:47.080Z,2.00
2022-11-10T16:34:12.639Z,2.05
2022-11-10T16:36:34.324Z,1.73
2022-11-10T16:38:58.482Z,2.10
2022-11-10T16:41:19.190Z,1.90
2022-11-10T16:43:39.826Z,2.00
2022-11-10T16:46:05.883Z,2.40
2022-11-10T16:48:32.853Z,1.75
2022-11-10T16:50:56.012Z,1.88
2022-11-10T16:53:18.202Z,2.08
2022-11-10T16:55:38.770Z,2.05
2022-11-10T16:57:59.352Z,1.80
2022-11-10T17:00:20.002Z,2.50
2022-11-10T17:02:41.685Z,1.92
2022-11-10T17:05:02.229Z,2.47
2022-11-10T17:07:26.780Z,2.40
2022-11-10T17:09:47.311Z,2.03
2022-11-10T17:12:12.693Z,2.20
2022-11-10T17:14:34.147Z,2.00
2022-11-10T17:16:56.908Z,2.10
2022-11-10T17:19:24.090Z,2.30
2022-11-10T17:21:45.536Z,2.10
2022-11-10T17:24:06.990Z,1.98
2022-11-10T17:26:27.970Z,2.30
2022-11-10T17:28:50.941Z,2.22
2022-11-10T17:31:13.734Z,2.90
2022-11-10T17:33:36.664Z,2.70
2022-11-10T17:35:58.017Z,3.20
2022-11-10T17:38:24.376Z,3.15
2022-11-10T17:40:44.839Z,3.35
2022-11-10T17:43:04.902Z,3.20
2022-11-10T17:45:27.365Z,3.20
2022-11-10T17:47:49.086Z,3.13
2022-11-10T17:50:09.372Z,3.25
2022-11-10T17:52:29.929Z,3.55
2022-11-10T17:54:50.329Z,3.53
2022-11-10T17:57:11.090Z,4.40
2022-11-10T17:59:31.681Z,4.85
2022-11-10T18:01:52.589Z,5.07
2022-11-10T18:04:16.456Z,6.50
2022-11-10T18:06:36.817Z,6.70
2022-11-10T18:08:57.485Z,7.72
2022-11-10T18:11:22.037Z,7.70
2022-11-10T18:13:43.892Z,8.52
2022-11-10T18:16:05.000Z,7.70
2022-11-10T18:18:25.362Z,8.05
2022-11-10T18:20:45.779Z,7.10
2022-11-10T18:23:11.190Z,6.38
2022-11-10T18:25:31.539Z,5.80
2022-11-10T18:27:52.484Z,5.85
2022-11-10T18:30:14.539Z,5.72
2022-11-10T18:32:34.761Z,5.53
2022-11-10T18:34:55.356Z,5.90
2022-11-10T18:37:19.164Z,4.60
2022-11-10T18:39:39.464Z,5.97
2022-11-10T18:42:00.258Z,6.45
2022-11-10T18:44:21.188Z,6.85
2022-11-10T18:46:45.285Z,6.70
2022-11-10T18:49:05.475Z,7.13
2022-11-10T18:51:26.147Z,8.00
2022-11-10T18:53:46.241Z,8.60
2022-11-10T18:56:09.318Z,9.13
2022-11-10T18:58:29.707Z,8.38
2022-11-10T19:00:51.751Z,9.88
2022-11-10T19:03:14.811Z,8.55
2022-11-10T19:05:35.452Z,7.43
2022-11-10T19:07:55.955Z,6.75
2022-11-10T19:10:19.181Z,6.88
2022-11-10T19:12:39.427Z,6.93
2022-11-10T19:15:01.494Z,6.72
2022-11-10T19:17:22.256Z,6.80
2022-11-10T19:19:42.896Z,6.63
2022-11-10T19:22:04.957Z,6.45
2022-11-10T19:24:28.357Z,6.88
2022-11-10T19:26:51.686Z,7.57
2022-11-10T19:29:16.110Z,6.28
2022-11-10T19:31:36.664Z,7.13
2022-11-10T19:33:57.709Z,6.65
2022-11-10T19:36:23.176Z,6.43
2022-11-10T19:38:47.535Z,6.47
2022-11-10T19:41:12.468Z,6.35
2022-11-10T19:43:33.549Z,6.93
2022-11-10T19:45:53.822Z,6.15
2022-11-10T19:48:17.312Z,7.18
2022-11-10T19:50:37.609Z,6.63
2022-11-10T19:52:58.204Z,7.45
2022-11-10T19:55:18.552Z,6.68
2022-11-10T19:57:38.513Z,10.95
2022-11-10T19:59:58.700Z,13.02
2022-11-10T20:02:19.125Z,16.67
2022-11-10T20:04:59.310Z,19.52
2022-11-10T20:07:58.607Z,22.10
2022-11-10T20:10:18.567Z,23.40
2022-11-10T20:12:41.575Z,23.73
2022-11-10T20:15:01.917Z,25.17
2022-11-10T20:17:21.977Z,22.02
2022-11-10T20:19:42.501Z,22.45
2022-11-10T20:22:02.986Z,20.27
2022-11-10T20:24:23.122Z,17.85
2022-11-10T20:26:45.314Z,15.40
2022-11-10T20:29:05.616Z,15.82
2022-11-10T20:31:26.303Z,13.57
2022-11-10T20:33:48.494Z,11.52
2022-11-10T20:36:18.936Z,9.50
2022-11-10T20:38:47.133Z,7.53
2022-11-10T20:41:13.590Z,7.28
2022-11-10T20:43:38.261Z,6.07
2022-11-10T20:45:58.829Z,6.47
2022-11-10T20:48:19.572Z,6.40
2022-11-10T20:50:40.643Z,6.70
2022-11-10T20:53:01.907Z,7.28
2022-11-10T20:55:51.709Z,7.50
2022-11-10T20:58:03.145Z,7.40
2022-11-10T21:00:24.202Z,7.82
2022-11-10T21:02:44.539Z,8.63
2022-11-10T21:05:05.899Z,8.57
2022-11-10T21:07:29.700Z,9.02
2022-11-10T21:09:50.194Z,8.93
2022-11-10T21:12:31.404Z,10.65
2022-11-10T21:14:51.835Z,11.13
2022-11-10T21:17:12.295Z,11.73
2022-11-10T21:19:34.581Z,11.68
2022-11-10T21:21:54.579Z,12.45
2022-11-10T21:24:15.252Z,14.60
2022-11-10T21:26:35.813Z,13.15
2022-11-10T21:28:57.528Z,12.63
2022-11-10T21:31:18.609Z,12.45
2022-11-10T21:33:38.671Z,12.50
2022-11-10T21:36:05.250Z,10.90
2022-11-10T21:38:27.235Z,10.50
2022-11-10T21:40:47.682Z,10.40
2022-11-10T21:43:09.080Z,9.30
2022-11-10T21:45:29.856Z,9.82
2022-11-10T21:47:52.459Z,10.02
2022-11-10T21:50:15.165Z,11.05
2022-11-10T21:52:35.799Z,10.43
2022-11-10T21:54:56.375Z,11.70
2022-11-10T21:57:18.941Z,11.85
2022-11-10T21:59:39.665Z,11.48
2022-11-10T22:02:00.361Z,11.10
2022-11-10T22:04:23.386Z,10.15
2022-11-10T22:07:08.948Z,9.25
2022-11-10T22:09:49.278Z,9.27
2022-11-10T22:12:35.095Z,8.35
2022-11-10T22:15:15.671Z,8.48
2022-11-10T22:17:54.813Z,9.32
2022-11-10T22:20:16.245Z,10.73
2022-11-10T22:22:36.514Z,12.40
2022-11-10T22:24:57.367Z,11.48
2022-11-10T22:27:17.493Z,11.52
2022-11-10T22:29:38.124Z,11.05
2022-11-10T22:31:59.827Z,10.15
2022-11-10T22:34:20.969Z,10.02
2022-11-10T22:36:41.254Z,9.82
2022-11-10T22:39:03.943Z,9.13
2022-11-10T22:41:43.953Z,10.00
2022-11-10T22:44:05.232Z,8.90
2022-11-10T22:46:28.447Z,9.68
2022-11-10T22:48:48.467Z,9.18
2022-11-10T22:51:09.078Z,9.15
2022-11-10T22:53:30.681Z,8.77
2022-11-10T22:55:50.865Z,9.77
2022-11-10T22:58:14.133Z,9.68
2022-11-10T23:00:34.248Z,9.15
2022-11-10T23:02:54.727Z,8.02
2022-11-10T23:05:15.745Z,7.28
2022-11-10T23:07:36.010Z,7.15
2022-11-10T23:09:56.164Z,6.78
2022-11-10T23:12:16.727Z,6.00
2022-11-10T23:14:37.071Z,6.13
2022-11-10T23:16:57.440Z,6.55
2022-11-10T23:19:17.610Z,6.63
2022-11-10T23:21:37.721Z,6.85
2022-11-10T23:23:58.344Z,7.10
2022-11-10T23:26:24.067Z,6.80
2022-11-10T23:28:47.994Z,7.47
2022-11-10T23:31:18.065Z,6.57
2022-11-10T23:33:39.690Z,6.00
2022-11-10T23:36:00.447Z,5.65
2022-11-10T23:38:20.594Z,5.70
2022-11-10T23:40:41.126Z,5.95
2022-11-10T23:43:01.385Z,5.22
2022-11-10T23:45:21.510Z,6.10
2022-11-10T23:47:42.061Z,6.13
2022-11-10T23:50:03.239Z,6.20
2022-11-10T23:52:23.523Z,6.25
2022-11-10T23:54:43.743Z,5.97
2022-11-10T23:57:04.234Z,5.82
2022-11-10T23:59:24.386Z,5.85
